Time;durP1;ratioP1;P1;durP2;ratioP2;P2;SDS_P1;SDS_P2;PMS_P1;PMS_P2;Temp;Humidity;BMP_temperature;BMP_pressure;BME280_temperature;BME280_humidity;BME280_pressure;Samples;Min_cycle;Max_cycle;Signal;HPM_P1;HPM_P2
2024/04/21 00:03:01;;;;;;;5.80;2.27;;;17.10;47.80;;;;;;4887985;28;20596;-80
2024/04/21 00:07:05;;;;;;;3.70;2.17;;;17.00;47.30;;;;;;4947649;28;20494;-80
2024/04/21 00:22:37;;;;;;;2.60;2.10;;;16.90;47.30;;;;;;5173370;27;20608;-78
2024/04/21 00:29:43;;;;;;;;;;;;;;;;;;;;;
2024/04/21 00:36:26;;;;;;;5.43;2.00;;;16.80;47.30;;;;;;5201404;27;20512;-76
2024/04/21 00:39:40;;;;;;;3.90;2.30;;;16.70;47.40;;;;;;5210516;27;20529;-76
2024/04/21 00:43:02;;;;;;;4.47;2.33;;;16.80;47.40;;;;;;5204085;27;20524;-78
2024/04/21 00:46:10;;;;;;;3.10;1.90;;;16.70;47.30;;;;;;5237559;26;20518;-79
2024/04/21 00:49:31;;;;;;;;;;;;;;;;;;;;;
2024/04/21 00:59:25;;;;;;;3.13;2.10;;;16.70;47.00;;;;;;5320149;21;20546;-78
2024/04/21 01:01:53;;;;;;;5.07;2.50;;;16.70;47.30;;;;;;5425965;26;20458;-79
2024/04/21 01:04:25;;;;;;;3.20;2.20;;;16.70;47.20;;;;;;5495327;26;20513;-78
2024/04/21 01:06:53;;;;;;;3.30;2.20;;;16.70;47.30;;;;;;5466162;26;20535;-76
2024/04/21 01:09:25;;;;;;;4.90;2.13;;;16.70;47.20;;;;;;5449083;26;20564;-80
2024/04/21 01:11:52;;;;;;;7.57;2.30;;;16.70;47.20;;;;;;5363951;26;20505;-77
2024/04/21 01:14:25;;;;;;;3.60;2.30;;;16.70;47.10;;;;;;5419691;26;20460;-78
2024/04/21 01:16:53;;;;;;;3.17;1.90;;;16.70;47.30;;;;;;5392141;26;20481;-78
2024/04/21 01:19:24;;;;;;;2.73;1.80;;;16.80;47.30;;;;;;5387888;26;20481;-78
2024/04/21 01:21:52;;;;;;;2.13;1.80;;;16.70;47.20;;;;;;5426623;26;20488;-78
2024/04/21 01:24:24;;;;;;;3.33;1.70;;;16.70;47.20;;;;;;5419023;26;20535;-77
2024/04/21 01:26:52;;;;;;;4.77;2.20;;;16.70;47.30;;;;;;5405413;26;20579;-78
2024/04/21 01:29:22;;;;;;;2.40;1.90;;;16.70;47.20;;;;;;5419181;26;20480;-78
2024/04/21 01:31:50;;;;;;;1.83;1.73;;;16.60;47.30;;;;;;5403774;26;20512;-77
2024/04/21 01:34:20;;;;;;;2.70;1.87;;;16.60;47.40;;;;;;5402099;26;20461;-78
2024/04/21 01:36:48;;;;;;;2.80;1.70;;;16.70;47.50;;;;;;5393402;26;20524;-78
2024/04/21 01:39:18;;;;;;;1.90;1.80;;;16.70;47.40;;;;;;5438984;26;20542;-79
2024/04/21 01:41:48;;;;;;;2.90;1.90;;;16.60;47.40;;;;;;5419227;26;20592;-78
2024/04/21 01:44:18;;;;;;;1.80;1.70;;;16.60;47.30;;;;;;5417443;26;20579;-80
2024/04/21 01:46:49;;;;;;;2.50;1.73;;;16.60;47.40;;;;;;5387112;26;20520;-78
2024/04/21 01:49:19;;;;;;;4.13;1.97;;;16.60;47.30;;;;;;5387433;26;20516;-77
2024/04/21 01:51:49;;;;;;;2.60;1.43;;;16.50;47.30;;;;;;5402317;26;20526;-78
2024/04/21 01:54:20;;;;;;;1.53;1.43;;;16.50;47.10;;;;;;5418680;26;20536;-77
2024/04/21 01:56:50;;;;;;;1.70;1.60;;;16.50;47.40;;;;;;5417897;26;20539;-77
2024/04/21 01:59:21;;;;;;;2.10;1.50;;;16.50;47.30;;;;;;5386941;26;20585;-78
2024/04/21 02:01:48;;;;;;;3.63;1.87;;;16.40;47.40;;;;;;5419966;26;20460;-78
2024/04/21 02:04:18;;;;;;;5.50;1.87;;;16.40;47.50;;;;;;5426554;26;20553;-77
2024/04/21 02:06:46;;;;;;;3.00;1.80;;;16.40;47.40;;;;;;5418405;26;20585;-81
2024/04/21 02:09:16;;;;;;;2.93;1.40;;;16.40;47.50;;;;;;5418157;26;20473;-78
2024/04/21 02:11:44;;;;;;;2.87;1.70;;;16.30;47.60;;;;;;5386825;26;20526;-78
2024/04/21 02:14:17;;;;;;;1.60;1.47;;;16.30;47.50;;;;;;5386574;26;20481;-77
2024/04/21 02:16:45;;;;;;;1.60;1.50;;;16.30;47.50;;;;;;5416838;26;20554;-78
2024/04/21 02:19:15;;;;;;;2.50;1.60;;;16.30;47.50;;;;;;5423642;26;20476;-79
2024/04/21 02:21:42;;;;;;;3.10;1.60;;;16.30;47.50;;;;;;5417605;26;20469;-79
2024/04/21 02:24:13;;;;;;;2.00;1.73;;;16.20;47.50;;;;;;5427179;26;20479;-78
2024/04/21 02:26:41;;;;;;;3.27;1.70;;;16.20;47.60;;;;;;5420948;26;20577;-78
2024/04/21 02:29:11;;;;;;;5.50;2.00;;;16.20;47.60;;;;;;5398432;26;20545;-79
2024/04/21 02:31:42;;;;;;;2.23;1.23;;;16.20;47.50;;;;;;5358170;26;20595;-78
2024/04/21 02:34:12;;;;;;;3.67;1.70;;;16.30;47.60;;;;;;5386168;26;20481;-80
2024/04/21 02:36:40;;;;;;;1.93;1.67;;;16.30;47.60;;;;;;5382465;26;20508;-78
2024/04/21 02:39:10;;;;;;;2.07;1.63;;;16.20;47.50;;;;;;5417149;26;20480;-79
2024/04/21 02:41:38;;;;;;;4.10;1.40;;;16.20;47.70;;;;;;5431609;26;20467;-78
2024/04/21 02:44:08;;;;;;;1.87;1.40;;;16.30;47.60;;;;;;5416788;26;20473;-79
2024/04/21 02:46:35;;;;;;;2.30;1.43;;;16.30;47.60;;;;;;5431825;26;20493;-79
2024/04/21 02:49:08;;;;;;;1.90;1.63;;;16.30;47.50;;;;;;5436188;26;20475;-79
2024/04/21 02:51:36;;;;;;;2.33;1.57;;;16.20;47.40;;;;;;5436046;26;20543;-78
2024/04/21 02:54:06;;;;;;;2.20;1.80;;;16.30;47.60;;;;;;5417358;26;20477;-78
2024/04/21 02:56:34;;;;;;;1.93;1.80;;;16.30;47.60;;;;;;5422391;26;20985;-78
2024/04/21 02:59:04;;;;;;;2.10;1.80;;;16.30;47.60;;;;;;5386261;26;20592;-79
2024/04/21 03:01:32;;;;;;;2.10;1.20;;;16.20;47.60;;;;;;5430914;26;20527;-83
2024/04/21 03:04:02;;;;;;;1.90;1.40;;;16.20;47.50;;;;;;5431602;26;20477;-79
2024/04/21 03:06:33;;;;;;;2.30;1.53;;;16.20;47.60;;;;;;5421738;26;20456;-79
2024/04/21 03:09:03;;;;;;;2.10;1.67;;;16.20;47.40;;;;;;5392443;26;20543;-82
2024/04/21 03:11:31;;;;;;;4.40;1.80;;;16.20;47.50;;;;;;5423433;26;20517;-79
2024/04/21 03:14:01;;;;;;;2.13;1.93;;;16.20;47.50;;;;;;5401541;26;20818;-81
2024/04/21 03:16:29;;;;;;;2.23;1.77;;;16.20;47.50;;;;;;5424446;26;20532;-80
2024/04/21 03:18:59;;;;;;;4.10;1.83;;;16.20;47.50;;;;;;5387614;26;20473;-82
2024/04/21 03:21:27;;;;;;;1.47;1.37;;;16.20;47.70;;;;;;5401124;26;20865;-81
2024/04/21 03:24:00;;;;;;;3.10;1.70;;;16.20;47.80;;;;;;5372975;26;20507;-79
2024/04/21 03:26:27;;;;;;;3.17;1.73;;;16.20;47.70;;;;;;5426088;26;21102;-80
2024/04/21 03:28:57;;;;;;;2.77;2.17;;;16.20;47.80;;;;;;5385152;26;20477;-79
2024/04/21 03:31:25;;;;;;;4.03;2.20;;;16.20;47.90;;;;;;5424257;26;20481;-79
2024/04/21 03:33:55;;;;;;;5.27;3.30;;;16.20;47.90;;;;;;5429264;26;20461;-79
2024/04/21 03:36:22;;;;;;;6.40;2.77;;;16.20;47.80;;;;;;5426244;26;20467;-79
2024/04/21 03:38:52;;;;;;;5.33;2.77;;;16.20;47.80;;;;;;5422967;26;20501;-81
2024/04/21 03:41:25;;;;;;;3.60;2.90;;;16.20;47.90;;;;;;5407180;26;20587;-80
2024/04/21 03:43:56;;;;;;;5.90;3.90;;;16.20;47.90;;;;;;5421377;26;20463;-79
2024/04/21 03:46:23;;;;;;;4.20;3.10;;;16.20;48.00;;;;;;5452521;26;20494;-79
2024/04/21 03:48:54;;;;;;;3.23;2.77;;;16.20;48.00;;;;;;5452082;26;20479;-80
2024/04/21 03:51:22;;;;;;;6.63;4.03;;;16.20;48.00;;;;;;5368578;26;20581;-79
2024/04/21 03:53:52;;;;;;;5.67;3.47;;;16.20;48.10;;;;;;5416432;26;20491;-79
2024/04/21 03:56:22;;;;;;;5.37;3.87;;;16.20;48.20;;;;;;5377629;26;20466;-78
2024/04/21 03:58:52;;;;;;;4.50;3.80;;;16.20;48.20;;;;;;5380828;26;20541;-79
2024/04/21 04:01:20;;;;;;;6.73;3.83;;;16.20;48.10;;;;;;5349900;26;20469;-79
2024/04/21 04:03:50;;;;;;;6.73;3.90;;;16.20;48.30;;;;;;5380545;26;20581;-80
2024/04/21 04:06:18;;;;;;;4.30;3.90;;;16.10;48.30;;;;;;5380427;26;20458;-80
2024/04/21 04:08:49;;;;;;;5.00;3.30;;;16.20;48.30;;;;;;5380668;26;20486;-79
2024/04/21 04:11:16;;;;;;;5.83;3.97;;;16.20;48.30;;;;;;5380344;26;20470;-79
2024/04/21 04:13:49;;;;;;;5.40;4.13;;;16.20;48.40;;;;;;5379924;26;20458;-80
2024/04/21 04:16:17;;;;;;;5.87;4.40;;;16.20;48.40;;;;;;5380349;26;20470;-79
2024/04/21 04:18:47;;;;;;;5.73;3.97;;;16.20;48.40;;;;;;5379947;26;20462;-78
2024/04/21 04:21:14;;;;;;;3.90;3.50;;;16.10;48.30;;;;;;5380057;26;20466;-80
2024/04/21 04:23:45;;;;;;;4.13;3.50;;;16.20;48.60;;;;;;5379678;26;20458;-80
2024/04/21 04:26:12;;;;;;;6.43;4.30;;;16.20;48.40;;;;;;5350288;26;20486;-79
2024/04/21 04:28:43;;;;;;;4.30;3.80;;;16.10;48.60;;;;;;5379998;26;20485;-79
2024/04/21 04:31:13;;;;;;;4.80;4.07;;;16.10;48.40;;;;;;5379746;26;20466;-79
2024/04/21 04:33:43;;;;;;;5.70;3.80;;;16.20;48.60;;;;;;5349357;26;20470;-80
2024/04/21 04:36:11;;;;;;;4.63;3.57;;;16.10;48.50;;;;;;5379763;26;20470;-80
2024/04/21 04:38:41;;;;;;;4.83;4.23;;;16.20;48.60;;;;;;5349080;26;20549;-79
2024/04/21 04:41:09;;;;;;;6.00;4.43;;;16.10;48.50;;;;;;5378572;26;20516;-78
2024/04/21 04:43:39;;;;;;;4.93;4.07;;;16.10;48.50;;;;;;5379927;26;20559;-79
2024/04/21 04:46:07;;;;;;;4.27;3.87;;;16.10;48.50;;;;;;5379966;26;20462;-79
2024/04/21 04:48:40;;;;;;;4.33;3.93;;;16.10;48.60;;;;;;5379722;26;21022;-79
2024/04/21 04:51:10;;;;;;;4.63;3.43;;;16.10;48.60;;;;;;5380101;26;20478;-77
2024/04/21 04:53:41;;;;;;;7.83;3.90;;;16.20;48.70;;;;;;5379118;26;20458;-79
2024/04/21 04:56:10;;;;;;;5.50;4.27;;;16.20;48.60;;;;;;5379600;26;21093;-81
2024/04/21 04:58:40;;;;;;;5.30;4.00;;;16.10;48.60;;;;;;5379342;26;20486;-77
2024/04/21 05:01:08;;;;;;;4.50;3.70;;;16.20;48.70;;;;;;5399325;26;20515;-81
2024/04/21 05:03:42;;;;;;;4.10;3.47;;;16.10;48.50;;;;;;5436207;26;20572;-78
2024/04/21 05:06:09;;;;;;;8.60;4.10;;;16.10;48.70;;;;;;5441336;26;20460;-79
2024/04/21 05:08:39;;;;;;;4.20;3.57;;;16.10;48.80;;;;;;5435386;26;20515;-79
2024/04/21 05:11:07;;;;;;;4.83;3.87;;;16.10;48.90;;;;;;5395160;26;20573;-81
2024/04/21 05:13:37;;;;;;;5.17;3.43;;;16.10;48.70;;;;;;5427269;26;20460;-79
2024/04/21 05:16:05;;;;;;;4.90;3.77;;;16.00;48.60;;;;;;5399447;26;20480;-79
2024/04/21 05:18:36;;;;;;;4.83;3.67;;;16.10;48.90;;;;;;5383480;26;20512;-82
2024/04/21 05:21:06;;;;;;;4.20;3.50;;;16.10;48.80;;;;;;5429025;26;20489;-78
2024/04/21 05:23:37;;;;;;;4.57;3.90;;;16.10;48.80;;;;;;5426652;26;20468;-79
2024/04/21 05:26:05;;;;;;;3.60;3.30;;;16.00;48.80;;;;;;5430398;26;21050;-81
2024/04/21 05:28:35;;;;;;;3.97;3.30;;;16.00;49.00;;;;;;5427418;26;20493;-79
2024/04/21 05:31:15;;;;;;;5.93;3.80;;;16.00;49.00;;;;;;5401147;26;20566;-80
2024/04/21 05:33:45;;;;;;;5.87;3.97;;;16.10;49.10;;;;;;5429266;26;20468;-79
2024/04/21 05:36:16;;;;;;;3.77;3.40;;;16.00;49.20;;;;;;5428951;26;20485;-79
2024/04/21 05:38:49;;;;;;;3.97;3.40;;;16.10;49.20;;;;;;5414465;26;20496;-79
2024/04/21 05:41:16;;;;;;;4.50;3.23;;;16.10;49.10;;;;;;5418636;26;20468;-78
2024/04/21 05:43:48;;;;;;;3.83;3.30;;;16.10;49.30;;;;;;5435855;26;20480;-79
2024/04/21 05:46:16;;;;;;;3.63;3.33;;;16.10;49.30;;;;;;5414214;26;21036;-79
2024/04/21 05:48:47;;;;;;;3.67;2.60;;;16.10;49.30;;;;;;5423257;26;20487;-79
2024/04/21 05:51:17;;;;;;;2.60;2.40;;;16.10;49.40;;;;;;5402235;26;20537;-79
2024/04/21 05:53:47;;;;;;;2.57;2.37;;;16.10;49.50;;;;;;5429518;26;20476;-79
2024/04/21 05:56:15;;;;;;;2.70;2.50;;;16.10;49.40;;;;;;5415415;26;20476;-79
2024/04/21 05:58:45;;;;;;;3.77;2.73;;;16.10;49.40;;;;;;5386658;26;20580;-76
2024/04/21 06:01:13;;;;;;;2.83;2.63;;;16.20;49.50;;;;;;5410052;26;20495;-79
2024/04/21 06:03:43;;;;;;;2.87;2.67;;;16.20;49.40;;;;;;5425408;26;20464;-79
2024/04/21 06:06:10;;;;;;;2.23;2.13;;;16.20;49.40;;;;;;5417762;26;20579;-78
2024/04/21 06:08:43;;;;;;;2.90;2.60;;;16.10;49.40;;;;;;5419583;26;20504;-79
2024/04/21 06:11:10;;;;;;;2.70;2.50;;;16.20;49.50;;;;;;5424454;26;20465;-78
2024/04/21 06:13:40;;;;;;;2.90;2.70;;;16.20;49.50;;;;;;5431099;26;20472;-77
2024/04/21 06:16:07;;;;;;;3.23;2.37;;;16.30;49.50;;;;;;5440779;26;20523;-76
2024/04/21 06:18:37;;;;;;;6.60;2.97;;;16.30;49.50;;;;;;5427374;26;20542;-77
2024/04/21 06:21:05;;;;;;;2.90;2.70;;;16.30;49.40;;;;;;5444613;26;20521;-78
2024/04/21 06:23:35;;;;;;;4.97;3.13;;;16.30;49.50;;;;;;5429800;26;20464;-77
2024/04/21 06:26:05;;;;;;;3.20;2.90;;;16.40;49.50;;;;;;5432793;26;20575;-77
2024/04/21 06:28:36;;;;;;;2.97;2.60;;;16.40;49.40;;;;;;5417588;26;20473;-80
2024/04/21 06:31:03;;;;;;;2.70;2.50;;;16.50;49.50;;;;;;5420803;26;20579;-79
2024/04/21 06:33:34;;;;;;;2.53;2.33;;;16.50;49.40;;;;;;5432278;26;20528;-78
2024/04/21 06:36:01;;;;;;;3.73;2.70;;;16.60;49.40;;;;;;5418567;26;20520;-78
2024/04/21 06:38:32;;;;;;;3.53;2.77;;;16.70;49.50;;;;;;5383199;26;20470;-79
2024/04/21 06:41:01;;;;;;;2.50;2.30;;;16.70;49.40;;;;;;5401042;26;20517;-79
2024/04/21 06:43:34;;;;;;;2.87;2.63;;;16.80;49.50;;;;;;5376464;26;20464;-79
2024/04/21 06:46:01;;;;;;;2.47;2.10;;;16.90;49.40;;;;;;5418068;26;20464;-78
2024/04/21 06:48:31;;;;;;;2.47;2.27;;;16.90;49.50;;;;;;5417425;26;20544;-78
2024/04/21 06:50:59;;;;;;;3.00;2.30;;;17.00;49.40;;;;;;5418463;26;20477;-79
2024/04/21 06:53:29;;;;;;;2.10;2.00;;;17.00;49.60;;;;;;5421516;26;20583;-81
2024/04/21 06:56:01;;;;;;;2.47;2.27;;;17.10;49.30;;;;;;5384894;26;20484;-78
2024/04/21 06:58:34;;;;;;;2.70;2.23;;;17.10;49.80;;;;;;5405318;26;20953;-78
2024/04/21 07:01:02;;;;;;;2.60;2.40;;;17.20;49.40;;;;;;5431599;26;20530;-78
2024/04/21 07:03:32;;;;;;;2.30;2.20;;;17.20;49.50;;;;;;5416008;26;20488;-79
2024/04/21 07:06:00;;;;;;;3.10;2.70;;;17.20;49.60;;;;;;5417048;26;20533;-79
2024/04/21 07:08:30;;;;;;;2.70;2.50;;;17.30;49.80;;;;;;5416885;26;20485;-81
2024/04/21 07:10:57;;;;;;;2.00;1.90;;;17.30;49.80;;;;;;5420591;26;20472;-77
2024/04/21 07:13:33;;;;;;;2.13;2.00;;;17.40;49.90;;;;;;5437249;26;20486;-78
2024/04/21 07:16:01;;;;;;;2.03;1.80;;;17.60;50.00;;;;;;5421408;26;20515;-79
2024/04/21 07:18:31;;;;;;;3.27;1.97;;;17.70;49.80;;;;;;5419287;26;20536;-80
2024/04/21 07:21:11;;;;;;;2.30;2.10;;;17.70;49.80;;;;;;5420174;26;20473;-79
2024/04/21 07:23:57;;;;;;;2.30;2.10;;;17.80;49.60;;;;;;5414200;26;20484;-78
2024/04/21 07:26:25;;;;;;;2.87;2.00;;;17.90;50.00;;;;;;5407424;26;20481;-77
2024/04/21 07:29:01;;;;;;;2.70;2.50;;;18.00;49.90;;;;;;5434098;26;20513;-79
2024/04/21 07:31:30;;;;;;;2.33;2.13;;;18.10;50.00;;;;;;5393032;26;20536;-81
2024/04/21 07:34:00;;;;;;;2.00;1.90;;;18.20;49.80;;;;;;5417659;26;20492;-77
2024/04/21 07:36:28;;;;;;;2.10;2.00;;;18.40;50.60;;;;;;5416134;26;20511;-79
2024/04/21 07:38:58;;;;;;;1.90;1.80;;;18.50;49.90;;;;;;5418849;26;20581;-79
2024/04/21 07:41:27;;;;;;;1.77;1.67;;;18.60;49.90;;;;;;5403157;26;20480;-79
2024/04/21 07:44:00;;;;;;;2.07;1.87;;;18.80;49.70;;;;;;5410061;26;20544;-78
2024/04/21 07:46:33;;;;;;;2.00;1.90;;;18.80;49.60;;;;;;5409450;26;20473;-81
2024/04/21 07:49:06;;;;;;;2.07;1.97;;;18.90;49.50;;;;;;5416525;26;20490;-79
2024/04/21 07:51:33;;;;;;;2.00;1.90;;;18.80;49.50;;;;;;5423034;26;20511;-78
2024/04/21 07:54:04;;;;;;;1.90;1.80;;;18.80;49.40;;;;;;5438356;26;20473;-79
2024/04/21 07:56:31;;;;;;;2.27;2.00;;;18.90;49.70;;;;;;5417790;26;20465;-78
2024/04/21 07:59:05;;;;;;;1.90;1.80;;;18.90;49.80;;;;;;5417498;26;20480;-76
2024/04/21 08:01:32;;;;;;;1.87;1.77;;;19.00;49.80;;;;;;5413772;26;20595;-78
2024/04/21 08:04:03;;;;;;;1.83;1.73;;;19.10;49.70;;;;;;5350011;26;20496;-78
2024/04/21 08:06:30;;;;;;;2.17;1.83;;;19.20;49.60;;;;;;5415076;26;20532;-77
2024/04/21 08:09:01;;;;;;;1.77;1.67;;;19.40;49.80;;;;;;5415979;26;20538;-78
2024/04/21 08:11:47;;;;;;;1.80;1.70;;;19.60;49.80;;;;;;5424863;26;20580;-81
2024/04/21 08:14:21;;;;;;;2.00;1.90;;;19.80;49.80;;;;;;5415031;26;20465;-77
2024/04/21 08:16:48;;;;;;;1.60;1.50;;;20.00;49.60;;;;;;5417512;26;20473;-79
2024/04/21 08:19:19;;;;;;;2.00;1.90;;;20.20;49.50;;;;;;5390952;26;20481;-77
2024/04/21 08:21:47;;;;;;;1.40;1.30;;;20.40;49.60;;;;;;5402428;26;20463;-78
2024/04/21 08:24:17;;;;;;;1.50;1.40;;;20.60;49.50;;;;;;5434181;26;20465;-79
2024/04/21 08:26:44;;;;;;;1.77;1.67;;;20.70;49.40;;;;;;5438057;26;20484;-78
2024/04/21 08:29:14;;;;;;;1.90;1.80;;;20.90;50.00;;;;;;5370040;26;20581;-78
2024/04/21 08:31:45;;;;;;;1.77;1.67;;;21.10;49.30;;;;;;5415884;26;20582;-79
2024/04/21 08:34:15;;;;;;;1.33;1.23;;;21.20;49.20;;;;;;5427861;26;20570;-79
2024/04/21 08:36:43;;;;;;;2.00;1.90;;;21.40;49.20;;;;;;5416026;26;20533;-79
2024/04/21 08:39:13;;;;;;;1.50;1.40;;;21.60;49.20;;;;;;5423294;26;21067;-77
2024/04/21 08:41:40;;;;;;;1.43;1.40;;;21.70;49.20;;;;;;5426618;26;20492;-78
2024/04/21 08:44:14;;;;;;;1.60;1.50;;;21.90;49.00;;;;;;5416617;26;20537;-79
2024/04/21 08:46:44;;;;;;;1.50;1.40;;;22.20;49.30;;;;;;5404587;26;20480;-81
2024/04/21 08:49:14;;;;;;;3.33;1.57;;;22.30;49.00;;;;;;5418936;26;20469;-79
2024/04/21 08:51:41;;;;;;;1.63;1.50;;;22.60;49.00;;;;;;5427051;26;20586;-81
2024/04/21 08:54:12;;;;;;;1.30;1.30;;;22.80;49.00;;;;;;5417313;26;20501;-78
2024/04/21 08:56:42;;;;;;;1.30;1.23;;;23.10;48.80;;;;;;5414921;26;20472;-78
2024/04/21 08:59:14;;;;;;;1.50;1.43;;;23.30;48.60;;;;;;5379198;26;20470;-78
2024/04/21 09:01:45;;;;;;;1.30;1.30;;;23.50;48.70;;;;;;5414905;26;20469;-78
2024/04/21 09:04:19;;;;;;;1.50;1.40;;;23.80;48.40;;;;;;5415221;26;20528;-79
2024/04/21 09:06:50;;;;;;;1.57;1.47;;;24.00;48.40;;;;;;5414975;26;20588;-78
2024/04/21 09:09:21;;;;;;;1.60;1.50;;;24.10;47.90;;;;;;5431861;26;20467;-78
2024/04/21 09:11:49;;;;;;;1.50;1.40;;;24.30;48.00;;;;;;5424576;26;20465;-78
2024/04/21 09:14:20;;;;;;;1.73;1.63;;;24.50;47.90;;;;;;5414184;26;20540;-78
2024/04/21 09:16:50;;;;;;;1.50;1.40;;;24.70;47.90;;;;;;5422641;26;20451;-79
2024/04/21 09:19:20;;;;;;;1.20;1.10;;;24.80;47.90;;;;;;5395368;26;20569;-76
2024/04/21 09:21:51;;;;;;;1.27;1.27;;;25.00;47.70;;;;;;5424904;26;20476;-78
2024/04/21 09:24:21;;;;;;;1.03;1.03;;;25.20;47.40;;;;;;5447965;26;20519;-77
2024/04/21 09:26:49;;;;;;;1.40;1.30;;;25.40;47.30;;;;;;5418357;26;20437;-77
2024/04/21 09:29:19;;;;;;;1.37;1.37;;;25.70;47.20;;;;;;5434620;26;20589;-78
2024/04/21 09:31:46;;;;;;;1.20;1.20;;;25.90;46.90;;;;;;5425840;26;20469;-78
2024/04/21 09:34:21;;;;;;;1.10;1.10;;;26.10;46.50;;;;;;5432389;26;20443;-78
2024/04/21 09:36:49;;;;;;;1.20;1.20;;;26.40;46.40;;;;;;5429305;26;20511;-77
2024/04/21 09:39:19;;;;;;;1.30;1.30;;;26.60;46.10;;;;;;5437305;26;20518;-79
2024/04/21 09:41:50;;;;;;;1.30;1.20;;;26.70;45.40;;;;;;5440182;26;20440;-79
2024/04/21 09:44:20;;;;;;;1.10;1.10;;;26.80;45.00;;;;;;5454139;26;20548;-77
2024/04/21 09:46:48;;;;;;;1.10;1.10;;;27.00;45.00;;;;;;5454060;26;20479;-79
2024/04/21 09:49:20;;;;;;;1.20;1.20;;;27.30;44.90;;;;;;5433222;26;20872;-79
2024/04/21 09:51:51;;;;;;;1.10;1.10;;;27.60;44.60;;;;;;5387149;26;20496;-77
2024/04/21 09:54:25;;;;;;;1.23;1.00;;;27.80;44.10;;;;;;5418227;26;20488;-77
2024/04/21 09:56:54;;;;;;;1.33;1.33;;;27.90;43.50;;;;;;5418226;26;20445;-78
2024/04/21 09:59:25;;;;;;;1.17;1.17;;;27.90;43.10;;;;;;5417534;26;20476;-79
2024/04/21 10:01:53;;;;;;;1.23;1.23;;;27.90;42.60;;;;;;5387155;26;20441;-78
2024/04/21 10:04:26;;;;;;;3.53;1.50;;;27.80;42.20;;;;;;5429735;26;20519;-79
2024/04/21 10:06:54;;;;;;;1.43;1.33;;;27.70;42.00;;;;;;5398335;26;20473;-81
2024/04/21 10:09:24;;;;;;;1.00;1.00;;;27.80;42.20;;;;;;5420483;26;20517;-78
2024/04/21 10:11:54;;;;;;;2.90;1.40;;;27.80;42.00;;;;;;5418404;26;20558;-79
2024/04/21 10:14:27;;;;;;;1.37;1.37;;;28.00;42.00;;;;;;5422803;26;20477;-79
2024/04/21 10:16:57;;;;;;;1.10;1.10;;;28.10;41.20;;;;;;5418912;26;20496;-79
2024/04/21 10:19:30;;;;;;;1.43;1.33;;;28.00;40.70;;;;;;5419493;26;20449;-82
2024/04/21 10:21:57;;;;;;;1.37;1.37;;;27.90;40.70;;;;;;5390191;26;20493;-77
2024/04/21 10:24:30;;;;;;;1.47;1.37;;;27.90;40.60;;;;;;5384545;26;20533;-79
2024/04/21 10:26:59;;;;;;;1.70;1.60;;;27.70;40.40;;;;;;5371514;26;20566;-79
2024/04/21 10:29:30;;;;;;;1.33;1.30;;;27.60;40.60;;;;;;5417571;26;20488;-77
2024/04/21 10:32:20;;;;;;;1.20;1.20;;;27.50;40.30;;;;;;5403377;26;21041;-78
2024/04/21 10:34:54;;;;;;;1.30;1.30;;;27.40;40.20;;;;;;5412509;26;20532;-78
2024/04/21 10:37:23;;;;;;;1.50;1.50;;;27.20;40.20;;;;;;5419882;26;20521;-83
2024/04/21 10:39:54;;;;;;;1.20;1.10;;;27.40;41.00;;;;;;5397459;26;20457;-77
2024/04/21 10:43:01;;;;;;;1.40;1.30;;;27.50;40.60;;;;;;5419319;26;20977;-80
2024/04/21 10:45:32;;;;;;;1.20;1.20;;;27.90;40.70;;;;;;5396067;26;20472;-78
2024/04/21 10:48:29;;;;;;;1.30;1.10;;;27.90;40.20;;;;;;5412730;26;20530;-77
2024/04/21 10:51:29;;;;;;;1.40;1.30;;;28.20;40.70;;;;;;5404690;26;20477;-80
2024/04/21 10:54:30;;;;;;;1.37;1.27;;;28.60;40.40;;;;;;5418452;26;20505;-78
2024/04/21 10:57:03;;;;;;;1.40;1.40;;;28.80;39.70;;;;;;5410144;26;20449;-78
2024/04/21 10:59:33;;;;;;;1.60;1.60;;;28.80;40.10;;;;;;5436051;26;20455;-79
2024/04/21 11:02:01;;;;;;;2.00;1.80;;;29.00;40.30;;;;;;5453686;26;20463;-79
2024/04/21 11:04:36;;;;;;;1.63;1.53;;;29.10;40.00;;;;;;5446867;26;20485;-79
2024/04/21 11:07:04;;;;;;;1.47;1.37;;;29.50;40.10;;;;;;5449773;26;20539;-81
2024/04/21 11:09:37;;;;;;;1.63;1.53;;;29.90;40.00;;;;;;5462678;26;20468;-81
2024/04/21 11:12:05;;;;;;;1.40;1.40;;;30.30;39.70;;;;;;5462995;26;20898;-81
2024/04/21 11:14:35;;;;;;;1.27;1.27;;;30.60;39.10;;;;;;5443377;26;20528;-82
2024/04/21 11:17:03;;;;;;;1.53;1.53;;;30.50;38.30;;;;;;5429964;26;20567;-80
2024/04/21 11:19:33;;;;;;;1.30;1.30;;;30.40;38.30;;;;;;5442502;26;20579;-83
2024/04/21 11:22:00;;;;;;;1.23;1.23;;;31.70;39.90;;;;;;5437813;26;20544;-78
2024/04/21 11:24:30;;;;;;;1.27;1.27;;;33.70;37.30;;;;;;5439851;26;20537;-80
2024/04/21 11:27:01;;;;;;;1.43;1.33;;;35.50;35.20;;;;;;5433854;26;20484;-80
2024/04/21 11:29:33;;;;;;;1.30;1.30;;;36.80;33.30;;;;;;5423248;26;20480;-77
2024/04/21 11:32:01;;;;;;;1.83;1.50;;;36.60;30.20;;;;;;5435594;26;20514;-81
2024/04/21 11:34:31;;;;;;;1.50;1.50;;;35.50;31.20;;;;;;5396057;26;20528;-79
2024/04/21 11:36:58;;;;;;;1.70;1.60;;;34.40;32.40;;;;;;5395773;26;20465;-82
2024/04/21 11:39:29;;;;;;;1.60;1.60;;;34.80;31.80;;;;;;5434379;26;20850;-78
2024/04/21 11:41:57;;;;;;;1.63;1.30;;;33.90;32.60;;;;;;5423682;26;20554;-79
2024/04/21 11:44:30;;;;;;;2.57;1.43;;;33.50;33.10;;;;;;5423599;26;20496;-79
2024/04/21 11:46:57;;;;;;;2.07;1.43;;;33.10;33.60;;;;;;5400176;26;20583;-79
2024/04/21 11:49:27;;;;;;;1.30;1.30;;;32.40;34.40;;;;;;5415441;26;20584;-78
2024/04/21 11:51:55;;;;;;;1.73;1.63;;;31.80;35.20;;;;;;5389546;26;20545;-80
2024/04/21 11:54:25;;;;;;;2.60;1.40;;;31.40;36.30;;;;;;5421404;26;20500;-79
2024/04/21 11:56:53;;;;;;;4.33;1.60;;;31.80;35.20;;;;;;5399424;26;20593;-79
2024/04/21 11:59:25;;;;;;;1.50;1.40;;;31.40;35.40;;;;;;5411675;26;20484;-79
2024/04/21 12:01:56;;;;;;;1.43;1.43;;;32.00;38.00;;;;;;5406452;26;20484;-78
2024/04/21 12:04:26;;;;;;;1.50;1.40;;;33.40;35.50;;;;;;5415724;26;21052;-81
2024/04/21 12:06:53;;;;;;;1.40;1.30;;;33.60;33.80;;;;;;5420814;26;20450;-79
2024/04/21 12:09:23;;;;;;;1.30;1.20;;;33.40;32.70;;;;;;5423080;26;20516;-78
2024/04/21 12:11:51;;;;;;;1.50;1.40;;;32.60;33.30;;;;;;5409394;26;20473;-82
2024/04/21 12:14:28;;;;;;;1.70;1.60;;;31.90;34.20;;;;;;5417456;26;20476;-79
2024/04/21 12:17:02;;;;;;;1.70;1.60;;;31.20;35.10;;;;;;5418180;26;20525;-79
2024/04/21 12:19:34;;;;;;;1.90;1.57;;;30.60;35.90;;;;;;5418734;26;20489;-83
2024/04/21 12:22:01;;;;;;;1.60;1.50;;;30.40;36.40;;;;;;5391880;26;21134;-82
2024/04/21 12:24:32;;;;;;;1.50;1.40;;;30.10;36.80;;;;;;5419120;26;20484;-79
2024/04/21 12:26:59;;;;;;;1.60;1.50;;;29.90;37.20;;;;;;5369369;26;20474;-79
2024/04/21 12:29:29;;;;;;;2.20;2.10;;;29.80;37.30;;;;;;5418136;26;20473;-83
2024/04/21 12:31:57;;;;;;;3.00;1.80;;;29.20;32.20;;;;;;5426136;26;20571;-84
2024/04/21 12:34:30;;;;;;;3.07;2.23;;;29.00;32.30;;;;;;5422409;26;20579;-84
2024/04/21 12:36:57;;;;;;;4.00;2.30;;;28.90;31.90;;;;;;5408813;26;20461;-82
2024/04/21 12:39:27;;;;;;;2.70;2.00;;;28.70;32.50;;;;;;5421951;26;20449;-84
2024/04/21 12:41:55;;;;;;;2.77;1.97;;;28.80;33.60;;;;;;5416330;26;20549;-81
2024/04/21 12:44:26;;;;;;;11.97;2.30;;;29.30;32.10;;;;;;5436418;26;20500;-80
2024/04/21 12:46:53;;;;;;;4.77;1.97;;;29.80;32.20;;;;;;5412618;26;20553;-82
2024/04/21 12:49:24;;;;;;;1.97;1.87;;;30.30;31.50;;;;;;5436693;26;20443;-82
2024/04/21 12:51:54;;;;;;;7.30;2.23;;;30.80;30.20;;;;;;5376948;26;20477;-81
2024/04/21 12:54:25;;;;;;;3.13;2.00;;;30.20;30.60;;;;;;5413571;26;20532;-81
2024/04/21 12:56:52;;;;;;;2.53;2.07;;;29.50;31.80;;;;;;5398064;26;20648;-81
2024/04/21 12:59:23;;;;;;;9.03;1.83;;;28.80;32.50;;;;;;5420229;26;20441;-81
2024/04/21 13:01:50;;;;;;;5.43;1.60;;;28.30;33.40;;;;;;5423909;26;21040;-84
2024/04/21 13:04:21;;;;;;;2.70;2.00;;;29.10;33.50;;;;;;5423459;26;20520;-85
2024/04/21 13:06:51;;;;;;;6.13;2.00;;;29.90;32.10;;;;;;5400694;26;20461;-83
2024/04/21 13:09:21;;;;;;;1.83;1.70;;;31.30;31.10;;;;;;5420145;26;21054;-83
2024/04/21 13:11:51;;;;;;;1.80;1.53;;;32.50;29.40;;;;;;5435499;26;20550;-81
2024/04/21 13:14:19;;;;;;;4.07;1.60;;;33.30;28.80;;;;;;5414110;26;20548;-80
2024/04/21 13:16:49;;;;;;;2.00;1.90;;;33.80;28.20;;;;;;5429643;26;20468;-82
2024/04/21 13:19:18;;;;;;;1.77;1.63;;;34.00;28.00;;;;;;5411216;26;20528;-81
2024/04/21 13:21:48;;;;;;;3.17;1.53;;;33.30;27.90;;;;;;5420771;26;20531;-81
2024/04/21 13:24:21;;;;;;;1.60;1.50;;;32.10;28.80;;;;;;5417865;26;20565;-80
2024/04/21 13:26:51;;;;;;;1.90;1.80;;;31.30;29.80;;;;;;5421487;26;20538;-82
2024/04/21 13:29:19;;;;;;;4.63;1.57;;;30.50;31.00;;;;;;5440627;26;20479;-86
2024/04/21 13:31:49;;;;;;;4.20;1.80;;;30.00;31.40;;;;;;5394548;26;20446;-81
2024/04/21 13:34:22;;;;;;;2.20;1.67;;;29.60;31.90;;;;;;5388115;26;20480;-81
2024/04/21 13:36:52;;;;;;;2.00;1.80;;;29.30;32.50;;;;;;5410721;26;20505;-84
2024/04/21 13:39:22;;;;;;;2.17;2.00;;;29.10;32.90;;;;;;5386937;26;20501;-80